WetterOnline ( https://www.wetteronline.de )

Wetter aktuell Kappeln

Aktuelles Wetter: Schönhagen (Ostseebad) (2m)

6-stündlich | Neueste Meldungen
Ortszeit Temperatur Wetter
Fr, 03.02. 7:00 7.5° C leichter Regen
Fr, 03.02. 1:00 4.3° C Sprühregen
Do, 02.02. 19:00 3.6° C bewölkt
Do, 02.02. 13:00 5.8° C wolkenlos
Do, 02.02. 7:00 4.9° C bewölkt
Do, 02.02. 1:00 5.0° C Sprühregen
Mi, 01.02. 19:00 5.8° C bewölkt
Mi, 01.02. 13:00 3.8° C Regen
Ortszeit Temperatur Wetter
Fr, 03.02. 10:30 6.4° C leichter Regen
Fr, 03.02. 10:20 6.4° C leichter Regen
Fr, 03.02. 10:10 7.8° C bewölkt
Fr, 03.02. 10:00 7.7° C wolkig
Fr, 03.02. 9:50 7.7° C wolkig
Fr, 03.02. 9:40 7.7° C bewölkt
Fr, 03.02. 9:30 7.8° C bewölkt
Fr, 03.02. 9:00 8.0° C bewölkt
Fr, 03.02. 8:30 8.2° C bewölkt
Fr, 03.02. 8:00 8.0° C leichter Regen
Fr, 03.02. 7:30 7.6° C leichter Regen
Ortszeit Relative Feuchte Sichtweite
Fr, 03.02. 7:00 94% 2.8 km
Fr, 03.02. 1:00 95% 4.5 km
Do, 02.02. 19:00 84% 40 km
Do, 02.02. 13:00 75% 35 km
Do, 02.02. 7:00 82% 30 km
Do, 02.02. 1:00 89% 14 km
Mi, 01.02. 19:00 76% 19 km
Mi, 01.02. 13:00 84% 6 km
Ortszeit Relative Feuchte Sichtweite
Fr, 03.02. 10:30 76% 17 km
Fr, 03.02. 10:20 76% -
Fr, 03.02. 10:10 72% -
Fr, 03.02. 10:00 73% 14 km
Fr, 03.02. 9:50 73% -
Fr, 03.02. 9:40 74% -
Fr, 03.02. 9:30 76% 13 km
Fr, 03.02. 9:00 77% 15 km
Fr, 03.02. 8:30 81% 18 km
Fr, 03.02. 8:00 88% 7 km
Fr, 03.02. 7:30 93% 3.2 km
Ortszeit Niederschlagsmenge Niederschlagsart
Fr, 03.02. 7:00 6 l/m2 in 12 Std. Regen
Fr, 03.02. 1:00 4 l/m2 in 6 Std. Regen
Do, 02.02. 19:00 0.0 l/m2 in 12 Std. -
Do, 02.02. 13:00 0.0 l/m2 in 6 Std. -
Do, 02.02. 7:00 0.7 l/m2 in 12 Std. Regen
Do, 02.02. 1:00 0.7 l/m2 in 6 Std. Regen
Mi, 01.02. 19:00 4 l/m2 in 12 Std. Regen
Mi, 01.02. 13:00 1 l/m2 in 6 Std. Regen
Ortszeit Niederschlagsmenge Niederschlagsart
Fr, 03.02. 10:30 <0.05 l/m2 in 30 Min -
Fr, 03.02. 10:20 keine Meldung -
Fr, 03.02. 10:10 keine Meldung -
Fr, 03.02. 10:00 0.0 l/m2 in 1 Std. Regen
Fr, 03.02. 9:50 keine Meldung -
Fr, 03.02. 9:40 keine Meldung -
Fr, 03.02. 9:30 0.0 l/m2 in 30 Min -
Fr, 03.02. 9:00 0.2 l/m2 in 1 Std. Regen
Fr, 03.02. 8:30 0.2 l/m2 in 30 Min Schneeregen
Fr, 03.02. 8:00 0.6 l/m2 in 1 Std. Regen
Fr, 03.02. 7:30 0.3 l/m2 in 30 Min -
Ortszeit Stärke Spitze Richtung
km/h Bft. km/h Grad Sektor
Fr, 03.02. 7:00 37 5 61 260° W
Fr, 03.02. 1:00 18 3 36 200° S
Do, 02.02. 19:00 11 2 22 220° SW
Do, 02.02. 13:00 11 2 40 330° NW
Do, 02.02. 7:00 22 4 43 300° NW
Do, 02.02. 1:00 30 5 72 300° NW
Mi, 01.02. 19:00 40 6 76 270° W
Mi, 01.02. 13:00 47 6 90 300° NW
Ortszeit Stärke Spitze Richtung
km/h Bft. km/h Grad Sektor
Fr, 03.02. 10:30 50 7 79 300° NW
Fr, 03.02. 10:20 50 7 - 300° NW
Fr, 03.02. 10:10 43 6 - 300° NW
Fr, 03.02. 10:00 40 6 65 300° NW
Fr, 03.02. 9:50 40 6 - 300° NW
Fr, 03.02. 9:40 37 5 - 300° NW
Fr, 03.02. 9:30 39 6 65 300° NW
Fr, 03.02. 9:00 43 6 68 300° NW
Fr, 03.02. 8:30 40 6 65 290° W
Fr, 03.02. 8:00 41 6 61 280° W
Fr, 03.02. 7:30 39 6 61 270° W
Ortszeit Untergrenze Bedeckung Gattung
total tief tief mittel hoch
Fr, 03.02. 7:00 300 m 7/8 7/8 - - -
Fr, 03.02. 1:00 180 m 7/8 7/8 - - -
Do, 02.02. 19:00 4500 m 7/8 7/8 - - -
Do, 02.02. 13:00 - 0/8 0/8 - - -
Do, 02.02. 7:00 720 m 7/8 7/8 - - -
Do, 02.02. 1:00 30 m 7/8 4/8 - - -
Mi, 01.02. 19:00 750 m 7/8 7/8 - - -
Mi, 01.02. 13:00 30 m 7/8 7/8 - - -
Ortszeit Bedeckungsgrad in Achtel und Wolkenuntergrenze
Fr, 03.02. 10:30 6(960m) 7(1290m) 7(1800m)
Fr, 03.02. 10:20 6(960m) 7(1290m) 7(1800m)
Fr, 03.02. 10:10 7
Fr, 03.02. 10:00 5(840m) 6(1050m)
Fr, 03.02. 9:50 5(840m) 6(1050m)
Fr, 03.02. 9:40 7
Fr, 03.02. 9:30 5(750m) 7(960m)
Fr, 03.02. 9:00 6(720m) 7(960m)
Fr, 03.02. 8:30 1(30m) 7(840m) 7(1320m)
Fr, 03.02. 8:00 2(30m) 7(630m) 7(900m)
Fr, 03.02. 7:30 5(270m) 7(390m) 8(570m)
Ortszeit Luftdruck NN (hPa) Tendenz (hPa in 3 Std.)
Fr, 03.02. 7:00 1008 - 2,7
Fr, 03.02. 1:00 1014 - 4,0
Do, 02.02. 19:00 1020 + 0,6
Do, 02.02. 13:00 1019 + 2,4
Do, 02.02. 7:00 1013 + 2,6
Do, 02.02. 1:00 1008 + 4,0
Mi, 01.02. 19:00 1003 + 0,3
Mi, 01.02. 13:00 1004 - 0,6
Ortszeit Luftdruck NN (hPa) Tendenz (hPa in 3 Std.)
Fr, 03.02. 10:30 1009 + 2,0
Fr, 03.02. 10:20 1009 keine Meldung
Fr, 03.02. 10:10 1009 keine Meldung
Fr, 03.02. 10:00 1009 + 0,9
Fr, 03.02. 9:50 1009 keine Meldung
Fr, 03.02. 9:40 1009 keine Meldung
Fr, 03.02. 9:30 1008 - 0,2
Fr, 03.02. 9:00 1008 - 1,2
Fr, 03.02. 8:30 1008 - 2,2
Fr, 03.02. 8:00 1007 - 2,7
Fr, 03.02. 7:30 1007 - 3,3
Ortszeit Schneehöhe (cm)
Fr, 03.02. 7:00 0
Fr, 03.02. 1:00 0
Do, 02.02. 19:00 0
Do, 02.02. 13:00 0
Do, 02.02. 7:00 0
Do, 02.02. 1:00 0
Mi, 01.02. 19:00 0
Mi, 01.02. 13:00 0
Ortszeit Schneehöhe (cm)
Fr, 03.02. 10:30 0
Fr, 03.02. 10:20 0
Fr, 03.02. 10:10 0
Fr, 03.02. 10:00 0
Fr, 03.02. 9:50 0
Fr, 03.02. 9:40 0
Fr, 03.02. 9:30 0
Fr, 03.02. 9:00 0
Fr, 03.02. 8:30 0
Fr, 03.02. 8:00 0
Fr, 03.02. 7:30 0
Link zu dieser Seite / Seite empfehlen

Das Wetter in ...